sensor_id;sensor_type;location;lat;lon;timestamp;P1;durP1;ratioP1;P2;durP2;ratioP2
10226;SDS011;15634;48.766;2.272;2022-12-18T00:01:48;56.15;;;24.58;;
10226;SDS011;15634;48.766;2.272;2022-12-18T00:04:15;52.78;;;24.95;;
10226;SDS011;15634;48.766;2.272;2022-12-18T00:06:48;61.17;;;26.45;;
10226;SDS011;15634;48.766;2.272;2022-12-18T00:09:15;51.92;;;24.55;;
10226;SDS011;15634;48.766;2.272;2022-12-18T00:11:41;57.17;;;25.52;;
10226;SDS011;15634;48.766;2.272;2022-12-18T00:14:09;50.15;;;24.95;;
10226;SDS011;15634;48.766;2.272;2022-12-18T00:16:37;56.97;;;26.05;;
10226;SDS011;15634;48.766;2.272;2022-12-18T00:19:04;58.20;;;27.35;;
10226;SDS011;15634;48.766;2.272;2022-12-18T00:21:31;58.75;;;26.75;;
10226;SDS011;15634;48.766;2.272;2022-12-18T00:23:59;56.38;;;26.15;;
10226;SDS011;15634;48.766;2.272;2022-12-18T00:26:27;55.67;;;26.08;;
10226;SDS011;15634;48.766;2.272;2022-12-18T00:28:57;52.10;;;24.98;;
10226;SDS011;15634;48.766;2.272;2022-12-18T00:31:25;52.15;;;24.80;;
10226;SDS011;15634;48.766;2.272;2022-12-18T00:33:53;50.95;;;24.77;;
10226;SDS011;15634;48.766;2.272;2022-12-18T00:36:22;56.75;;;26.13;;
10226;SDS011;15634;48.766;2.272;2022-12-18T00:38:49;51.05;;;24.67;;
10226;SDS011;15634;48.766;2.272;2022-12-18T00:41:17;49.80;;;25.35;;
10226;SDS011;15634;48.766;2.272;2022-12-18T00:44:05;49.45;;;24.23;;
10226;SDS011;15634;48.766;2.272;2022-12-18T00:46:31;51.42;;;25.00;;
10226;SDS011;15634;48.766;2.272;2022-12-18T00:48:58;53.05;;;25.45;;
10226;SDS011;15634;48.766;2.272;2022-12-18T00:51:25;50.65;;;24.98;;
10226;SDS011;15634;48.766;2.272;2022-12-18T00:53:52;51.92;;;24.13;;
10226;SDS011;15634;48.766;2.272;2022-12-18T00:56:20;50.30;;;24.42;;
10226;SDS011;15634;48.766;2.272;2022-12-18T00:58:46;50.97;;;24.65;;
10226;SDS011;15634;48.766;2.272;2022-12-18T01:01:13;48.20;;;24.52;;
10226;SDS011;15634;48.766;2.272;2022-12-18T01:03:40;46.88;;;23.70;;
10226;SDS011;15634;48.766;2.272;2022-12-18T01:06:08;51.00;;;24.05;;
10226;SDS011;15634;48.766;2.272;2022-12-18T01:08:36;47.67;;;24.13;;
10226;SDS011;15634;48.766;2.272;2022-12-18T01:11:06;51.53;;;25.17;;
10226;SDS011;15634;48.766;2.272;2022-12-18T01:13:36;49.85;;;25.05;;
10226;SDS011;15634;48.766;2.272;2022-12-18T01:16:02;51.67;;;24.65;;
10226;SDS011;15634;48.766;2.272;2022-12-18T01:18:29;49.28;;;25.05;;
10226;SDS011;15634;48.766;2.272;2022-12-18T01:20:56;47.05;;;24.55;;
10226;SDS011;15634;48.766;2.272;2022-12-18T01:23:23;47.22;;;23.80;;
10226;SDS011;15634;48.766;2.272;2022-12-18T01:25:50;49.53;;;23.58;;
10226;SDS011;15634;48.766;2.272;2022-12-18T01:28:16;53.15;;;24.55;;
10226;SDS011;15634;48.766;2.272;2022-12-18T01:30:44;51.88;;;24.02;;
10226;SDS011;15634;48.766;2.272;2022-12-18T01:33:11;49.55;;;24.25;;
10226;SDS011;15634;48.766;2.272;2022-12-18T01:35:40;52.60;;;23.38;;
10226;SDS011;15634;48.766;2.272;2022-12-18T01:38:07;49.35;;;24.60;;
10226;SDS011;15634;48.766;2.272;2022-12-18T01:40:34;52.72;;;25.48;;
10226;SDS011;15634;48.766;2.272;2022-12-18T01:43:00;56.03;;;24.80;;
10226;SDS011;15634;48.766;2.272;2022-12-18T01:45:28;56.15;;;24.60;;
10226;SDS011;15634;48.766;2.272;2022-12-18T01:47:57;49.60;;;24.73;;
10226;SDS011;15634;48.766;2.272;2022-12-18T01:50:27;49.30;;;23.80;;
10226;SDS011;15634;48.766;2.272;2022-12-18T01:52:56;51.92;;;24.70;;
10226;SDS011;15634;48.766;2.272;2022-12-18T01:55:25;53.50;;;24.45;;
10226;SDS011;15634;48.766;2.272;2022-12-18T01:57:53;49.25;;;24.13;;
10226;SDS011;15634;48.766;2.272;2022-12-18T02:00:21;51.22;;;24.25;;
10226;SDS011;15634;48.766;2.272;2022-12-18T02:02:49;48.83;;;24.33;;
10226;SDS011;15634;48.766;2.272;2022-12-18T02:05:17;49.67;;;24.13;;
10226;SDS011;15634;48.766;2.272;2022-12-18T02:07:52;51.58;;;23.95;;
10226;SDS011;15634;48.766;2.272;2022-12-18T02:10:27;46.67;;;24.10;;
10226;SDS011;15634;48.766;2.272;2022-12-18T02:12:56;49.58;;;23.85;;
10226;SDS011;15634;48.766;2.272;2022-12-18T02:15:29;44.65;;;23.08;;
10226;SDS011;15634;48.766;2.272;2022-12-18T02:17:59;48.65;;;24.67;;
10226;SDS011;15634;48.766;2.272;2022-12-18T02:20:32;45.08;;;23.25;;
10226;SDS011;15634;48.766;2.272;2022-12-18T02:23:04;46.22;;;23.10;;
10226;SDS011;15634;48.766;2.272;2022-12-18T02:25:39;49.10;;;23.58;;
10226;SDS011;15634;48.766;2.272;2022-12-18T02:30:46;44.20;;;21.23;;
10226;SDS011;15634;48.766;2.272;2022-12-18T02:33:14;44.92;;;23.35;;
10226;SDS011;15634;48.766;2.272;2022-12-18T02:35:41;49.83;;;22.75;;
10226;SDS011;15634;48.766;2.272;2022-12-18T02:38:08;41.97;;;22.00;;
10226;SDS011;15634;48.766;2.272;2022-12-18T02:40:35;47.70;;;23.80;;
10226;SDS011;15634;48.766;2.272;2022-12-18T02:43:06;44.85;;;23.08;;
10226;SDS011;15634;48.766;2.272;2022-12-18T02:45:33;48.42;;;23.65;;
10226;SDS011;15634;48.766;2.272;2022-12-18T02:48:00;45.13;;;22.13;;
10226;SDS011;15634;48.766;2.272;2022-12-18T02:50:29;43.80;;;22.67;;
10226;SDS011;15634;48.766;2.272;2022-12-18T02:53:01;47.92;;;23.35;;
10226;SDS011;15634;48.766;2.272;2022-12-18T02:55:37;48.78;;;23.10;;
10226;SDS011;15634;48.766;2.272;2022-12-18T02:58:13;45.13;;;22.67;;
10226;SDS011;15634;48.766;2.272;2022-12-18T03:00:43;46.25;;;22.85;;
10226;SDS011;15634;48.766;2.272;2022-12-18T03:03:26;46.23;;;22.93;;
10226;SDS011;15634;48.766;2.272;2022-12-18T03:05:57;50.25;;;23.88;;
10226;SDS011;15634;48.766;2.272;2022-12-18T03:08:27;48.95;;;23.35;;
10226;SDS011;15634;48.766;2.272;2022-12-18T03:10:55;45.42;;;23.27;;
10226;SDS011;15634;48.766;2.272;2022-12-18T03:13:31;47.45;;;23.90;;
10226;SDS011;15634;48.766;2.272;2022-12-18T03:15:59;46.40;;;24.10;;
10226;SDS011;15634;48.766;2.272;2022-12-18T03:18:29;46.78;;;23.77;;
10226;SDS011;15634;48.766;2.272;2022-12-18T03:20:59;47.80;;;23.77;;
10226;SDS011;15634;48.766;2.272;2022-12-18T03:23:27;46.40;;;23.08;;
10226;SDS011;15634;48.766;2.272;2022-12-18T03:25:57;48.40;;;23.15;;
10226;SDS011;15634;48.766;2.272;2022-12-18T03:28:30;45.17;;;23.38;;
10226;SDS011;15634;48.766;2.272;2022-12-18T03:31:01;45.50;;;23.30;;
10226;SDS011;15634;48.766;2.272;2022-12-18T03:33:30;53.63;;;24.27;;
10226;SDS011;15634;48.766;2.272;2022-12-18T03:36:01;43.90;;;23.75;;
10226;SDS011;15634;48.766;2.272;2022-12-18T03:38:27;47.53;;;23.35;;
10226;SDS011;15634;48.766;2.272;2022-12-18T03:40:56;46.50;;;24.05;;
10226;SDS011;15634;48.766;2.272;2022-12-18T03:43:30;45.92;;;23.75;;
10226;SDS011;15634;48.766;2.272;2022-12-18T03:46:02;43.90;;;23.52;;
10226;SDS011;15634;48.766;2.272;2022-12-18T03:48:34;45.58;;;23.00;;
10226;SDS011;15634;48.766;2.272;2022-12-18T03:51:05;42.83;;;23.20;;
10226;SDS011;15634;48.766;2.272;2022-12-18T03:53:36;52.65;;;24.27;;
10226;SDS011;15634;48.766;2.272;2022-12-18T03:56:05;46.08;;;23.75;;
10226;SDS011;15634;48.766;2.272;2022-12-18T03:58:34;46.35;;;23.70;;
10226;SDS011;15634;48.766;2.272;2022-12-18T04:01:02;50.10;;;24.25;;
10226;SDS011;15634;48.766;2.272;2022-12-18T04:03:30;43.10;;;23.08;;
10226;SDS011;15634;48.766;2.272;2022-12-18T04:05:58;47.33;;;22.95;;
10226;SDS011;15634;48.766;2.272;2022-12-18T04:08:26;41.35;;;23.42;;
10226;SDS011;15634;48.766;2.272;2022-12-18T04:10:53;47.83;;;23.45;;
10226;SDS011;15634;48.766;2.272;2022-12-18T04:13:23;46.05;;;24.13;;
10226;SDS011;15634;48.766;2.272;2022-12-18T04:15:51;44.97;;;23.55;;
10226;SDS011;15634;48.766;2.272;2022-12-18T04:18:18;47.10;;;23.23;;
10226;SDS011;15634;48.766;2.272;2022-12-18T04:20:45;50.83;;;22.95;;
10226;SDS011;15634;48.766;2.272;2022-12-18T04:23:12;49.65;;;23.60;;
10226;SDS011;15634;48.766;2.272;2022-12-18T04:25:38;47.55;;;23.08;;
10226;SDS011;15634;48.766;2.272;2022-12-18T04:28:05;47.72;;;23.05;;
10226;SDS011;15634;48.766;2.272;2022-12-18T04:30:32;44.03;;;22.48;;
10226;SDS011;15634;48.766;2.272;2022-12-18T04:33:00;44.55;;;22.75;;
10226;SDS011;15634;48.766;2.272;2022-12-18T04:35:26;43.60;;;22.75;;
10226;SDS011;15634;48.766;2.272;2022-12-18T04:37:53;49.28;;;23.23;;
10226;SDS011;15634;48.766;2.272;2022-12-18T04:40:20;46.13;;;23.17;;
10226;SDS011;15634;48.766;2.272;2022-12-18T04:42:47;45.10;;;22.27;;
10226;SDS011;15634;48.766;2.272;2022-12-18T04:45:14;48.05;;;23.52;;
10226;SDS011;15634;48.766;2.272;2022-12-18T04:47:40;45.40;;;22.10;;
10226;SDS011;15634;48.766;2.272;2022-12-18T04:50:09;50.08;;;23.35;;
10226;SDS011;15634;48.766;2.272;2022-12-18T04:52:35;47.55;;;22.15;;
10226;SDS011;15634;48.766;2.272;2022-12-18T04:55:02;43.45;;;21.70;;
10226;SDS011;15634;48.766;2.272;2022-12-18T04:57:29;38.85;;;21.33;;
10226;SDS011;15634;48.766;2.272;2022-12-18T04:59:56;47.95;;;22.65;;
10226;SDS011;15634;48.766;2.272;2022-12-18T05:02:23;41.47;;;22.08;;
10226;SDS011;15634;48.766;2.272;2022-12-18T05:04:49;45.78;;;23.25;;
10226;SDS011;15634;48.766;2.272;2022-12-18T05:07:17;46.70;;;23.73;;
10226;SDS011;15634;48.766;2.272;2022-12-18T05:09:44;45.85;;;21.35;;
10226;SDS011;15634;48.766;2.272;2022-12-18T05:12:11;44.28;;;21.58;;
10226;SDS011;15634;48.766;2.272;2022-12-18T05:14:37;45.25;;;21.90;;
10226;SDS011;15634;48.766;2.272;2022-12-18T05:17:04;46.30;;;22.13;;
10226;SDS011;15634;48.766;2.272;2022-12-18T05:19:31;49.25;;;22.83;;
10226;SDS011;15634;48.766;2.272;2022-12-18T05:21:57;49.95;;;22.85;;
10226;SDS011;15634;48.766;2.272;2022-12-18T05:24:25;47.60;;;23.02;;
10226;SDS011;15634;48.766;2.272;2022-12-18T05:26:52;49.70;;;22.85;;
10226;SDS011;15634;48.766;2.272;2022-12-18T05:29:19;43.10;;;23.00;;
10226;SDS011;15634;48.766;2.272;2022-12-18T05:31:45;50.10;;;23.60;;
10226;SDS011;15634;48.766;2.272;2022-12-18T05:34:12;47.47;;;22.33;;
10226;SDS011;15634;48.766;2.272;2022-12-18T05:36:39;45.47;;;22.15;;
10226;SDS011;15634;48.766;2.272;2022-12-18T05:39:06;47.85;;;22.40;;
10226;SDS011;15634;48.766;2.272;2022-12-18T05:41:34;44.90;;;22.58;;
10226;SDS011;15634;48.766;2.272;2022-12-18T05:44:01;44.40;;;22.67;;
10226;SDS011;15634;48.766;2.272;2022-12-18T05:46:28;45.53;;;23.02;;
10226;SDS011;15634;48.766;2.272;2022-12-18T05:48:58;46.55;;;22.30;;
10226;SDS011;15634;48.766;2.272;2022-12-18T05:51:25;44.83;;;22.58;;
10226;SDS011;15634;48.766;2.272;2022-12-18T05:53:52;45.03;;;23.40;;
10226;SDS011;15634;48.766;2.272;2022-12-18T05:56:19;48.97;;;23.45;;
10226;SDS011;15634;48.766;2.272;2022-12-18T05:58:50;46.53;;;22.67;;
10226;SDS011;15634;48.766;2.272;2022-12-18T06:01:18;46.63;;;23.60;;
10226;SDS011;15634;48.766;2.272;2022-12-18T06:03:46;47.38;;;22.98;;
10226;SDS011;15634;48.766;2.272;2022-12-18T06:06:13;48.55;;;23.40;;
10226;SDS011;15634;48.766;2.272;2022-12-18T06:08:42;48.75;;;23.55;;
10226;SDS011;15634;48.766;2.272;2022-12-18T06:11:08;48.55;;;22.85;;
10226;SDS011;15634;48.766;2.272;2022-12-18T06:13:35;42.88;;;22.27;;
10226;SDS011;15634;48.766;2.272;2022-12-18T06:16:04;48.25;;;23.00;;
10226;SDS011;15634;48.766;2.272;2022-12-18T06:18:31;45.40;;;23.05;;
10226;SDS011;15634;48.766;2.272;2022-12-18T06:20:59;45.78;;;22.23;;
10226;SDS011;15634;48.766;2.272;2022-12-18T06:23:26;48.33;;;22.42;;
10226;SDS011;15634;48.766;2.272;2022-12-18T06:25:53;49.83;;;24.23;;
10226;SDS011;15634;48.766;2.272;2022-12-18T06:28:20;45.58;;;22.65;;
10226;SDS011;15634;48.766;2.272;2022-12-18T06:30:47;48.38;;;22.95;;
10226;SDS011;15634;48.766;2.272;2022-12-18T06:33:15;42.25;;;21.80;;
10226;SDS011;15634;48.766;2.272;2022-12-18T06:35:42;44.20;;;21.95;;
10226;SDS011;15634;48.766;2.272;2022-12-18T06:38:09;44.67;;;22.38;;
10226;SDS011;15634;48.766;2.272;2022-12-18T06:40:36;45.90;;;22.67;;
10226;SDS011;15634;48.766;2.272;2022-12-18T06:43:03;47.13;;;23.02;;
10226;SDS011;15634;48.766;2.272;2022-12-18T06:45:29;43.53;;;22.17;;
10226;SDS011;15634;48.766;2.272;2022-12-18T06:47:56;42.65;;;21.40;;
10226;SDS011;15634;48.766;2.272;2022-12-18T06:50:24;40.72;;;21.77;;
10226;SDS011;15634;48.766;2.272;2022-12-18T06:52:51;43.88;;;21.33;;
10226;SDS011;15634;48.766;2.272;2022-12-18T06:55:18;43.83;;;22.05;;
10226;SDS011;15634;48.766;2.272;2022-12-18T06:57:44;45.65;;;21.05;;
10226;SDS011;15634;48.766;2.272;2022-12-18T07:00:11;50.58;;;24.00;;
10226;SDS011;15634;48.766;2.272;2022-12-18T07:02:39;44.38;;;22.17;;
10226;SDS011;15634;48.766;2.272;2022-12-18T07:05:06;43.65;;;22.13;;
10226;SDS011;15634;48.766;2.272;2022-12-18T07:07:34;46.00;;;21.67;;
10226;SDS011;15634;48.766;2.272;2022-12-18T07:10:02;44.38;;;22.50;;
10226;SDS011;15634;48.766;2.272;2022-12-18T07:12:29;43.63;;;22.92;;
10226;SDS011;15634;48.766;2.272;2022-12-18T07:14:55;45.20;;;22.25;;
10226;SDS011;15634;48.766;2.272;2022-12-18T07:17:22;47.03;;;22.63;;
10226;SDS011;15634;48.766;2.272;2022-12-18T07:19:49;44.88;;;22.58;;
10226;SDS011;15634;48.766;2.272;2022-12-18T07:22:15;47.10;;;22.58;;
10226;SDS011;15634;48.766;2.272;2022-12-18T07:24:44;41.78;;;21.20;;
10226;SDS011;15634;48.766;2.272;2022-12-18T07:27:10;47.53;;;23.30;;
10226;SDS011;15634;48.766;2.272;2022-12-18T07:29:37;45.78;;;22.88;;
10226;SDS011;15634;48.766;2.272;2022-12-18T07:32:04;41.78;;;21.70;;
10226;SDS011;15634;48.766;2.272;2022-12-18T07:34:32;41.25;;;21.77;;
10226;SDS011;15634;48.766;2.272;2022-12-18T07:36:58;40.13;;;21.83;;
10226;SDS011;15634;48.766;2.272;2022-12-18T07:39:25;46.38;;;21.83;;
10226;SDS011;15634;48.766;2.272;2022-12-18T07:41:54;45.95;;;21.50;;
10226;SDS011;15634;48.766;2.272;2022-12-18T07:44:38;40.75;;;21.75;;
10226;SDS011;15634;48.766;2.272;2022-12-18T07:47:05;45.22;;;21.10;;
10226;SDS011;15634;48.766;2.272;2022-12-18T07:49:31;44.83;;;21.38;;
10226;SDS011;15634;48.766;2.272;2022-12-18T07:51:58;42.78;;;21.63;;
10226;SDS011;15634;48.766;2.272;2022-12-18T07:54:25;43.13;;;21.40;;
10226;SDS011;15634;48.766;2.272;2022-12-18T07:56:53;40.67;;;20.85;;
10226;SDS011;15634;48.766;2.272;2022-12-18T07:59:20;41.85;;;20.92;;
10226;SDS011;15634;48.766;2.272;2022-12-18T08:01:46;42.53;;;22.02;;
10226;SDS011;15634;48.766;2.272;2022-12-18T08:04:13;40.90;;;21.33;;
10226;SDS011;15634;48.766;2.272;2022-12-18T08:06:40;42.80;;;22.27;;
10226;SDS011;15634;48.766;2.272;2022-12-18T08:09:06;41.00;;;22.00;;
10226;SDS011;15634;48.766;2.272;2022-12-18T08:11:33;43.63;;;21.30;;
10226;SDS011;15634;48.766;2.272;2022-12-18T08:14:02;43.63;;;21.60;;
10226;SDS011;15634;48.766;2.272;2022-12-18T08:16:28;43.50;;;20.90;;
10226;SDS011;15634;48.766;2.272;2022-12-18T08:18:55;46.03;;;22.70;;
10226;SDS011;15634;48.766;2.272;2022-12-18T08:21:23;42.28;;;21.08;;
10226;SDS011;15634;48.766;2.272;2022-12-18T08:23:52;37.53;;;20.38;;
10226;SDS011;15634;48.766;2.272;2022-12-18T08:26:19;39.78;;;20.60;;
10226;SDS011;15634;48.766;2.272;2022-12-18T08:28:46;40.75;;;20.70;;
10226;SDS011;15634;48.766;2.272;2022-12-18T08:31:14;40.63;;;21.15;;
10226;SDS011;15634;48.766;2.272;2022-12-18T08:33:40;38.38;;;20.23;;
10226;SDS011;15634;48.766;2.272;2022-12-18T08:36:08;41.97;;;21.15;;
10226;SDS011;15634;48.766;2.272;2022-12-18T08:38:35;45.13;;;20.85;;
10226;SDS011;15634;48.766;2.272;2022-12-18T08:41:02;37.53;;;20.40;;
10226;SDS011;15634;48.766;2.272;2022-12-18T08:43:29;40.20;;;20.65;;
10226;SDS011;15634;48.766;2.272;2022-12-18T08:46:15;43.97;;;20.65;;
10226;SDS011;15634;48.766;2.272;2022-12-18T08:48:42;41.90;;;20.70;;
10226;SDS011;15634;48.766;2.272;2022-12-18T08:51:08;37.65;;;20.48;;
10226;SDS011;15634;48.766;2.272;2022-12-18T08:53:36;38.65;;;19.83;;
10226;SDS011;15634;48.766;2.272;2022-12-18T08:56:03;40.35;;;21.00;;
10226;SDS011;15634;48.766;2.272;2022-12-18T08:58:30;43.90;;;20.65;;
10226;SDS011;15634;48.766;2.272;2022-12-18T09:00:59;40.53;;;21.58;;
10226;SDS011;15634;48.766;2.272;2022-12-18T09:03:27;42.70;;;20.98;;
10226;SDS011;15634;48.766;2.272;2022-12-18T09:05:54;37.00;;;19.58;;
10226;SDS011;15634;48.766;2.272;2022-12-18T09:08:20;39.15;;;20.95;;
10226;SDS011;15634;48.766;2.272;2022-12-18T09:10:48;46.75;;;22.33;;
10226;SDS011;15634;48.766;2.272;2022-12-18T09:13:15;42.95;;;21.30;;
10226;SDS011;15634;48.766;2.272;2022-12-18T09:15:42;37.25;;;20.02;;
10226;SDS011;15634;48.766;2.272;2022-12-18T09:18:11;41.67;;;22.05;;
10226;SDS011;15634;48.766;2.272;2022-12-18T09:20:39;38.03;;;20.23;;
10226;SDS011;15634;48.766;2.272;2022-12-18T09:23:06;38.92;;;20.52;;
10226;SDS011;15634;48.766;2.272;2022-12-18T09:25:33;42.60;;;21.83;;
10226;SDS011;15634;48.766;2.272;2022-12-18T09:28:02;41.60;;;21.15;;
10226;SDS011;15634;48.766;2.272;2022-12-18T09:30:31;37.35;;;19.83;;
10226;SDS011;15634;48.766;2.272;2022-12-18T09:32:59;38.80;;;20.98;;
10226;SDS011;15634;48.766;2.272;2022-12-18T09:35:25;38.80;;;20.35;;
10226;SDS011;15634;48.766;2.272;2022-12-18T09:37:54;39.58;;;20.27;;
10226;SDS011;15634;48.766;2.272;2022-12-18T09:40:22;36.67;;;19.80;;
10226;SDS011;15634;48.766;2.272;2022-12-18T09:42:51;39.28;;;20.13;;
10226;SDS011;15634;48.766;2.272;2022-12-18T09:45:20;37.85;;;20.42;;
10226;SDS011;15634;48.766;2.272;2022-12-18T09:47:47;37.22;;;19.75;;
10226;SDS011;15634;48.766;2.272;2022-12-18T09:50:17;37.75;;;20.42;;
10226;SDS011;15634;48.766;2.272;2022-12-18T09:52:49;37.70;;;19.85;;
10226;SDS011;15634;48.766;2.272;2022-12-18T09:55:22;40.58;;;20.42;;
10226;SDS011;15634;48.766;2.272;2022-12-18T09:57:52;37.30;;;20.35;;
10226;SDS011;15634;48.766;2.272;2022-12-18T10:00:22;37.65;;;20.77;;
10226;SDS011;15634;48.766;2.272;2022-12-18T10:02:50;41.10;;;20.23;;
10226;SDS011;15634;48.766;2.272;2022-12-18T10:05:20;45.55;;;21.85;;
10226;SDS011;15634;48.766;2.272;2022-12-18T10:07:55;40.65;;;20.15;;
10226;SDS011;15634;48.766;2.272;2022-12-18T10:10:29;39.20;;;20.88;;
10226;SDS011;15634;48.766;2.272;2022-12-18T10:13:03;40.22;;;20.40;;
10226;SDS011;15634;48.766;2.272;2022-12-18T10:15:36;42.35;;;21.38;;
10226;SDS011;15634;48.766;2.272;2022-12-18T10:18:11;34.83;;;19.08;;
10226;SDS011;15634;48.766;2.272;2022-12-18T10:20:42;38.88;;;20.95;;
10226;SDS011;15634;48.766;2.272;2022-12-18T10:23:12;40.33;;;20.95;;
10226;SDS011;15634;48.766;2.272;2022-12-18T10:25:50;38.05;;;20.85;;
10226;SDS011;15634;48.766;2.272;2022-12-18T10:28:20;40.38;;;21.30;;
10226;SDS011;15634;48.766;2.272;2022-12-18T10:30:47;42.63;;;20.77;;
10226;SDS011;15634;48.766;2.272;2022-12-18T10:33:15;46.00;;;22.08;;
10226;SDS011;15634;48.766;2.272;2022-12-18T10:35:43;38.85;;;20.70;;
10226;SDS011;15634;48.766;2.272;2022-12-18T10:38:21;37.10;;;20.83;;
10226;SDS011;15634;48.766;2.272;2022-12-18T10:40:52;38.15;;;20.23;;
10226;SDS011;15634;48.766;2.272;2022-12-18T10:43:21;43.85;;;21.63;;
10226;SDS011;15634;48.766;2.272;2022-12-18T10:45:58;44.15;;;21.70;;
10226;SDS011;15634;48.766;2.272;2022-12-18T10:48:26;40.80;;;19.67;;
10226;SDS011;15634;48.766;2.272;2022-12-18T10:50:54;38.88;;;21.13;;
10226;SDS011;15634;48.766;2.272;2022-12-18T10:53:22;41.47;;;20.73;;
10226;SDS011;15634;48.766;2.272;2022-12-18T10:55:52;39.80;;;21.10;;
10226;SDS011;15634;48.766;2.272;2022-12-18T10:58:21;40.40;;;21.67;;
10226;SDS011;15634;48.766;2.272;2022-12-18T11:01:04;38.60;;;20.52;;
10226;SDS011;15634;48.766;2.272;2022-12-18T11:03:35;41.55;;;21.13;;
10226;SDS011;15634;48.766;2.272;2022-12-18T11:06:04;40.45;;;21.25;;
10226;SDS011;15634;48.766;2.272;2022-12-18T11:08:33;44.92;;;21.98;;
10226;SDS011;15634;48.766;2.272;2022-12-18T11:11:02;41.92;;;21.45;;
10226;SDS011;15634;48.766;2.272;2022-12-18T11:13:30;42.67;;;21.60;;
10226;SDS011;15634;48.766;2.272;2022-12-18T11:15:57;43.75;;;21.27;;
10226;SDS011;15634;48.766;2.272;2022-12-18T11:18:25;40.53;;;20.88;;
10226;SDS011;15634;48.766;2.272;2022-12-18T11:20:54;41.78;;;21.13;;
10226;SDS011;15634;48.766;2.272;2022-12-18T11:23:22;36.13;;;20.40;;
10226;SDS011;15634;48.766;2.272;2022-12-18T11:25:54;36.47;;;20.27;;
10226;SDS011;15634;48.766;2.272;2022-12-18T11:28:27;40.20;;;20.23;;
10226;SDS011;15634;48.766;2.272;2022-12-18T11:33:46;42.55;;;21.20;;
10226;SDS011;15634;48.766;2.272;2022-12-18T11:36:16;39.58;;;21.48;;
10226;SDS011;15634;48.766;2.272;2022-12-18T11:38:43;41.25;;;21.38;;
10226;SDS011;15634;48.766;2.272;2022-12-18T11:41:13;40.20;;;20.50;;
10226;SDS011;15634;48.766;2.272;2022-12-18T11:43:47;41.88;;;22.35;;
10226;SDS011;15634;48.766;2.272;2022-12-18T11:46:17;37.13;;;20.33;;
10226;SDS011;15634;48.766;2.272;2022-12-18T11:48:49;41.85;;;21.17;;
10226;SDS011;15634;48.766;2.272;2022-12-18T11:51:20;39.80;;;20.95;;
10226;SDS011;15634;48.766;2.272;2022-12-18T11:53:51;39.95;;;20.85;;
10226;SDS011;15634;48.766;2.272;2022-12-18T11:56:25;39.47;;;21.45;;
10226;SDS011;15634;48.766;2.272;2022-12-18T11:58:58;44.33;;;21.90;;
10226;SDS011;15634;48.766;2.272;2022-12-18T12:01:34;41.72;;;20.70;;
10226;SDS011;15634;48.766;2.272;2022-12-18T12:04:15;40.42;;;21.27;;
10226;SDS011;15634;48.766;2.272;2022-12-18T12:06:52;39.58;;;21.98;;
10226;SDS011;15634;48.766;2.272;2022-12-18T12:09:29;42.13;;;21.77;;
10226;SDS011;15634;48.766;2.272;2022-12-18T12:12:03;37.17;;;20.75;;
10226;SDS011;15634;48.766;2.272;2022-12-18T12:14:43;40.67;;;22.00;;
10226;SDS011;15634;48.766;2.272;2022-12-18T12:17:15;43.55;;;21.63;;
10226;SDS011;15634;48.766;2.272;2022-12-18T12:19:49;43.72;;;23.30;;
10226;SDS011;15634;48.766;2.272;2022-12-18T12:22:20;49.33;;;25.50;;
10226;SDS011;15634;48.766;2.272;2022-12-18T12:24:54;56.30;;;26.80;;
10226;SDS011;15634;48.766;2.272;2022-12-18T12:27:29;41.35;;;23.20;;
10226;SDS011;15634;48.766;2.272;2022-12-18T12:30:05;48.38;;;24.02;;
10226;SDS011;15634;48.766;2.272;2022-12-18T12:32:42;43.33;;;22.83;;
10226;SDS011;15634;48.766;2.272;2022-12-18T12:35:20;42.22;;;21.75;;
10226;SDS011;15634;48.766;2.272;2022-12-18T12:37:54;38.42;;;20.73;;
10226;SDS011;15634;48.766;2.272;2022-12-18T12:40:28;44.45;;;22.52;;
10226;SDS011;15634;48.766;2.272;2022-12-18T12:42:58;38.40;;;19.63;;
10226;SDS011;15634;48.766;2.272;2022-12-18T12:45:40;42.85;;;21.15;;
10226;SDS011;15634;48.766;2.272;2022-12-18T12:48:14;37.60;;;20.58;;
10226;SDS011;15634;48.766;2.272;2022-12-18T12:50:43;34.42;;;20.25;;
10226;SDS011;15634;48.766;2.272;2022-12-18T12:53:13;39.60;;;21.50;;
10226;SDS011;15634;48.766;2.272;2022-12-18T12:55:47;41.70;;;20.67;;
10226;SDS011;15634;48.766;2.272;2022-12-18T12:58:14;33.92;;;19.65;;
10226;SDS011;15634;48.766;2.272;2022-12-18T13:00:49;40.13;;;20.40;;
10226;SDS011;15634;48.766;2.272;2022-12-18T13:03:22;37.58;;;19.67;;
10226;SDS011;15634;48.766;2.272;2022-12-18T13:05:54;39.22;;;20.35;;
10226;SDS011;15634;48.766;2.272;2022-12-18T13:08:22;38.78;;;20.95;;
10226;SDS011;15634;48.766;2.272;2022-12-18T13:10:50;41.40;;;20.83;;
10226;SDS011;15634;48.766;2.272;2022-12-18T13:13:47;39.90;;;19.45;;
10226;SDS011;15634;48.766;2.272;2022-12-18T13:16:16;34.75;;;19.67;;
10226;SDS011;15634;48.766;2.272;2022-12-18T13:18:48;40.45;;;20.90;;
10226;SDS011;15634;48.766;2.272;2022-12-18T13:21:17;39.20;;;20.70;;
10226;SDS011;15634;48.766;2.272;2022-12-18T13:23:48;36.00;;;19.50;;
10226;SDS011;15634;48.766;2.272;2022-12-18T13:26:28;36.45;;;19.23;;
10226;SDS011;15634;48.766;2.272;2022-12-18T13:29:00;37.38;;;19.10;;
10226;SDS011;15634;48.766;2.272;2022-12-18T13:34:33;35.95;;;19.67;;
10226;SDS011;15634;48.766;2.272;2022-12-18T13:40:14;35.45;;;20.02;;
10226;SDS011;15634;48.766;2.272;2022-12-18T13:43:28;35.95;;;19.50;;
10226;SDS011;15634;48.766;2.272;2022-12-18T13:46:01;42.10;;;20.85;;
10226;SDS011;15634;48.766;2.272;2022-12-18T13:48:33;46.15;;;22.27;;
10226;SDS011;15634;48.766;2.272;2022-12-18T13:51:04;37.75;;;20.08;;
10226;SDS011;15634;48.766;2.272;2022-12-18T13:53:36;42.40;;;22.02;;
10226;SDS011;15634;48.766;2.272;2022-12-18T13:58:32;32.60;;;18.15;;
10226;SDS011;15634;48.766;2.272;2022-12-18T14:00:59;46.33;;;23.38;;
10226;SDS011;15634;48.766;2.272;2022-12-18T14:03:28;40.47;;;19.88;;
10226;SDS011;15634;48.766;2.272;2022-12-18T14:05:56;38.20;;;19.73;;
10226;SDS011;15634;48.766;2.272;2022-12-18T14:08:29;39.25;;;21.73;;
10226;SDS011;15634;48.766;2.272;2022-12-18T14:11:07;42.97;;;21.90;;
10226;SDS011;15634;48.766;2.272;2022-12-18T14:13:45;40.00;;;20.10;;
10226;SDS011;15634;48.766;2.272;2022-12-18T14:16:13;38.22;;;19.92;;
10226;SDS011;15634;48.766;2.272;2022-12-18T14:18:42;35.95;;;19.20;;
10226;SDS011;15634;48.766;2.272;2022-12-18T14:21:16;46.25;;;20.77;;
10226;SDS011;15634;48.766;2.272;2022-12-18T14:23:46;43.88;;;21.88;;
10226;SDS011;15634;48.766;2.272;2022-12-18T14:26:20;39.65;;;20.83;;
10226;SDS011;15634;48.766;2.272;2022-12-18T14:28:49;41.70;;;21.95;;
10226;SDS011;15634;48.766;2.272;2022-12-18T14:31:17;49.80;;;23.35;;
10226;SDS011;15634;48.766;2.272;2022-12-18T14:33:44;43.05;;;22.45;;
10226;SDS011;15634;48.766;2.272;2022-12-18T14:36:13;48.92;;;24.10;;
10226;SDS011;15634;48.766;2.272;2022-12-18T14:38:42;48.85;;;24.15;;
10226;SDS011;15634;48.766;2.272;2022-12-18T14:41:11;46.67;;;24.00;;
10226;SDS011;15634;48.766;2.272;2022-12-18T14:43:40;36.50;;;20.33;;
10226;SDS011;15634;48.766;2.272;2022-12-18T14:48:57;36.78;;;20.45;;
10226;SDS011;15634;48.766;2.272;2022-12-18T14:51:24;41.35;;;20.52;;